Time;durP1;ratioP1;P1;durP2;ratioP2;P2;SDS_P1;SDS_P2;PMS_P1;PMS_P2;Temp;Humidity;BMP_temperature;BMP_pressure;BME280_temperature;BME280_humidity;BME280_pressure;Samples;Min_cycle;Max_cycle;Signal;HPM_P1;HPM_P2
2021/08/10 00:00:16;;;;;;;1.10;0.90;;;;;;;20.75;73.20;99723.92;1736950;80;21667;-54
2021/08/10 00:02:44;;;;;;;1.42;0.95;;;;;;;20.73;73.25;99725.06;1735190;80;21026;-54
2021/08/10 00:05:11;;;;;;;1.90;1.12;;;;;;;20.69;73.33;99727.69;1737645;80;21089;-55
2021/08/10 00:07:37;;;;;;;2.33;1.00;;;;;;;20.67;73.39;99728.36;1703360;82;21103;-55
2021/08/10 00:10:05;;;;;;;0.95;0.95;;;;;;;20.66;73.49;99734.33;1672303;83;21059;-53
2021/08/10 00:12:33;;;;;;;1.20;1.10;;;;;;;20.67;73.52;99728.36;1670661;83;21068;-54
2021/08/10 00:14:59;;;;;;;2.55;0.85;;;;;;;20.64;73.54;99729.98;1676122;83;21387;-54
2021/08/10 00:17:25;;;;;;;2.25;1.00;;;;;;;20.62;73.57;99724.66;1676643;83;21101;-54
2021/08/10 00:19:52;;;;;;;3.17;1.12;;;;;;;20.60;73.58;99723.92;1672880;83;21497;-54
2021/08/10 00:22:18;;;;;;;1.67;1.30;;;;;;;20.57;73.63;99724.22;1673657;83;22025;-53
2021/08/10 00:24:44;;;;;;;2.62;1.12;;;;;;;20.53;73.72;99719.14;1676834;83;22425;-53
2021/08/10 00:27:11;;;;;;;0.90;0.90;;;;;;;20.46;73.76;99722.06;1675691;83;21657;-54
2021/08/10 00:29:37;;;;;;;1.00;0.88;;;;;;;20.40;73.90;99724.86;1699969;82;21097;-55
2021/08/10 00:32:06;;;;;;;2.25;1.00;;;;;;;20.36;74.10;99728.85;1701213;82;21152;-53
2021/08/10 00:34:33;;;;;;;2.83;1.10;;;;;;;20.33;74.20;99735.42;1699612;82;21160;-54
2021/08/10 00:37:06;;;;;;;2.25;0.90;;;;;;;20.31;74.36;99727.02;1703743;82;21089;-54
2021/08/10 00:39:34;;;;;;;1.00;1.00;;;;;;;20.28;74.49;99725.41;1675400;83;21558;-55
2021/08/10 00:42:01;;;;;;;1.05;1.00;;;;;;;20.26;74.58;99729.27;1699855;82;21083;-53
2021/08/10 00:44:28;;;;;;;2.50;1.00;;;;;;;20.25;74.70;99736.59;1757505;80;20989;-54
2021/08/10 00:46:55;;;;;;;1.15;1.10;;;;;;;20.22;74.70;99731.92;1761063;80;21030;-53
2021/08/10 00:49:21;;;;;;;2.77;1.00;;;;;;;20.21;74.74;99732.92;1756889;80;21031;-55
2021/08/10 00:51:49;;;;;;;1.47;1.20;;;;;;;20.21;74.71;99739.75;1732454;80;21065;-55
2021/08/10 00:54:16;;;;;;;2.00;1.20;;;;;;;20.20;74.75;99740.75;1757679;80;21057;-53
2021/08/10 00:56:44;;;;;;;1.52;1.42;;;;;;;20.16;74.71;99742.03;1752087;80;21695;-54
2021/08/10 00:59:10;;;;;;;4.47;1.27;;;;;;;20.12;74.80;99740.06;1753859;79;21081;-54
2021/08/10 01:01:39;;;;;;;1.20;1.10;;;;;;;20.09;74.87;99738.08;1755366;80;21048;-56
2021/08/10 01:04:05;;;;;;;1.10;0.90;;;;;;;20.07;74.95;99734.64;1756470;80;21078;-54
2021/08/10 01:06:52;;;;;;;1.17;0.98;;;;;;;20.05;74.96;99729.31;1758187;80;20966;-54
2021/08/10 01:09:28;;;;;;;1.57;0.90;;;;;;;20.04;75.04;99731.67;1699801;82;21176;-54
2021/08/10 01:12:06;;;;;;;1.60;0.90;;;;;;;20.03;75.02;99735.40;1739518;80;20982;-56
2021/08/10 01:14:57;;;;;;;1.65;0.90;;;;;;;20.02;75.04;99730.93;1758037;80;20934;-52
2021/08/10 01:17:27;;;;;;;2.65;1.10;;;;;;;20.02;75.09;99726.33;1756429;80;21139;-55
2021/08/10 01:20:08;;;;;;;2.58;0.98;;;;;;;20.03;75.08;99734.03;1696311;82;21008;-54
2021/08/10 01:22:37;;;;;;;2.58;0.95;;;;;;;20.02;75.10;99731.80;1754455;80;21095;-56
2021/08/10 01:25:27;;;;;;;1.60;1.10;;;;;;;20.00;75.10;99737.02;1738304;80;21009;-55
2021/08/10 01:28:32;;;;;;;5.58;1.22;;;;;;;19.98;75.20;99736.31;1743067;80;20899;-55
2021/08/10 01:31:14;;;;;;;2.10;1.50;;;;;;;19.94;75.28;99738.44;1755614;80;20982;-53
2021/08/10 01:33:45;;;;;;;1.80;1.07;;;;;;;19.86;75.43;99732.77;1758312;80;21026;-54
2021/08/10 01:36:12;;;;;;;4.92;0.98;;;;;;;19.83;75.53;99737.62;1758187;80;22106;-53
2021/08/10 01:38:41;;;;;;;1.10;1.00;;;;;;;19.79;75.67;99730.71;1753732;80;21390;-54
2021/08/10 01:41:08;;;;;;;0.80;0.80;;;;;;;19.75;75.75;99727.86;1763396;80;20982;-55
2021/08/10 01:43:34;;;;;;;1.77;1.02;;;;;;;19.71;75.91;99730.50;1712814;80;21018;-55
2021/08/10 01:46:01;;;;;;;3.20;1.10;;;;;;;19.69;76.00;99730.63;1760046;80;21311;-53
2021/08/10 01:48:29;;;;;;;1.05;1.05;;;;;;;19.68;76.11;99722.07;1724484;82;21062;-54
2021/08/10 01:50:57;;;;;;;1.87;0.90;;;;;;;19.67;76.21;99709.91;1754354;80;21481;-54
2021/08/10 01:53:25;;;;;;;1.90;1.12;;;;;;;19.68;76.23;99707.55;1755399;79;21808;-55
2021/08/10 01:55:53;;;;;;;1.07;0.98;;;;;;;19.67;76.29;99714.88;1738792;80;20979;-54
2021/08/10 01:58:21;;;;;;;3.35;1.00;;;;;;;19.67;76.31;99708.55;1735096;80;21697;-56
2021/08/10 02:00:50;;;;;;;8.70;1.12;;;;;;;19.67;76.29;99703.08;1757032;80;22106;-55
2021/08/10 02:03:16;;;;;;;0.98;0.90;;;;;;;19.66;76.28;99713.14;1754490;79;21604;-54
2021/08/10 02:05:45;;;;;;;1.85;1.00;;;;;;;19.67;76.31;99708.55;1757772;80;20973;-55
2021/08/10 02:08:14;;;;;;;1.20;1.05;;;;;;;19.64;76.33;99713.30;1732872;80;21350;-55
2021/08/10 02:10:41;;;;;;;1.10;1.00;;;;;;;19.62;76.37;99707.09;1756990;80;20910;-56
2021/08/10 02:13:10;;;;;;;1.10;1.00;;;;;;;19.60;76.47;99713.18;1762530;80;21104;-55
2021/08/10 02:15:40;;;;;;;2.45;1.10;;;;;;;19.58;76.60;99711.07;1753058;80;21631;-54
2021/08/10 02:18:06;;;;;;;1.50;1.10;;;;;;;19.58;76.68;99710.20;1754778;80;21692;-53
2021/08/10 02:20:52;;;;;;;1.72;0.95;;;;;;;19.54;76.70;99704.66;1756285;80;21095;-52
2021/08/10 02:23:18;;;;;;;1.22;1.00;;;;;;;19.52;76.72;99707.52;1718824;82;21463;-53
2021/08/10 02:25:45;;;;;;;1.12;1.02;;;;;;;19.53;76.71;99709.74;1755546;80;21142;-55
2021/08/10 02:28:14;;;;;;;5.12;1.05;;;;;;;19.52;76.73;99716.20;1756158;80;21100;-54
2021/08/10 02:30:49;;;;;;;1.20;1.10;;;;;;;19.49;76.79;99710.98;1757749;79;21013;-54
2021/08/10 02:33:17;;;;;;;1.45;1.35;;;;;;;19.47;76.87;99708.42;1754745;80;21400;-55
2021/08/10 02:35:45;;;;;;;2.00;1.70;;;;;;;19.45;76.89;99704.91;1734793;80;21104;-54
2021/08/10 02:38:14;;;;;;;1.98;1.00;;;;;;;19.42;76.99;99715.21;1722381;82;20979;-54
2021/08/10 02:40:42;;;;;;;1.87;1.20;;;;;;;19.40;77.05;99708.52;1677857;83;21537;-54
2021/08/10 02:43:10;;;;;;;1.27;0.98;;;;;;;19.39;77.09;99706.81;1668497;82;21804;-53
2021/08/10 02:45:37;;;;;;;1.87;1.10;;;;;;;19.38;77.13;99715.12;1726869;81;21453;-55
2021/08/10 02:48:04;;;;;;;2.33;0.93;;;;;;;19.35;77.17;99716.23;1723458;81;21504;-54
2021/08/10 02:50:32;;;;;;;3.17;1.22;;;;;;;19.32;77.28;99715.62;1731120;81;21646;-53
2021/08/10 02:52:59;;;;;;;2.08;1.20;;;;;;;19.28;77.38;99711.81;1723065;81;21540;-55
2021/08/10 02:55:26;;;;;;;1.45;1.32;;;;;;;19.27;77.47;99716.89;1699760;81;21129;-53
2021/08/10 02:58:04;;;;;;;2.05;1.22;;;;;;;19.26;77.62;99715.16;1725391;81;21477;-54
2021/08/10 03:00:41;;;;;;;2.33;1.17;;;;;;;19.22;77.61;99712.83;1721994;81;21377;-55
2021/08/10 03:03:12;;;;;;;1.27;1.17;;;;;;;19.19;77.73;99720.77;1727129;81;21685;-55
2021/08/10 03:05:41;;;;;;;1.72;1.10;;;;;;;19.15;77.93;99721.14;1726130;81;21086;-54
2021/08/10 03:08:08;;;;;;;2.98;1.10;;;;;;;19.13;77.98;99722.66;1725736;81;21065;-55
2021/08/10 03:10:36;;;;;;;2.62;1.20;;;;;;;19.14;78.06;99723.53;1699676;81;21136;-55
2021/08/10 03:13:07;;;;;;;1.50;1.40;;;;;;;19.14;78.13;99723.53;1725407;81;20990;-55
2021/08/10 03:15:36;;;;;;;1.80;1.20;;;;;;;19.13;78.13;99725.88;1725276;81;21143;-56
2021/08/10 03:18:11;;;;;;;1.60;1.50;;;;;;;19.12;78.19;99725.02;1639692;84;21380;-55
2021/08/10 03:20:42;;;;;;;1.40;1.10;;;;;;;19.12;78.21;99722.78;1681329;84;21582;-55
2021/08/10 03:23:17;;;;;;;1.95;1.65;;;;;;;19.11;78.27;99721.05;1697756;83;21544;-55
2021/08/10 03:25:44;;;;;;;2.30;1.30;;;;;;;19.08;78.29;99723.52;1659301;84;21069;-55
2021/08/10 03:28:12;;;;;;;2.17;1.20;;;;;;;19.06;78.35;99724.64;1640425;84;21727;-56
2021/08/10 03:30:39;;;;;;;2.70;1.30;;;;;;;19.07;78.43;99727.73;1725912;81;21806;-56
2021/08/10 03:33:06;;;;;;;2.45;1.10;;;;;;;19.08;78.48;99724.89;1723646;81;21310;-54
2021/08/10 03:35:34;;;;;;;2.70;1.45;;;;;;;19.09;78.48;99725.75;1723384;81;21079;-54
2021/08/10 03:38:01;;;;;;;1.50;1.40;;;;;;;19.10;78.45;99732.95;1727809;81;21046;-54
2021/08/10 03:40:28;;;;;;;1.20;1.10;;;;;;;19.10;78.48;99732.95;1727695;81;21753;-56
2021/08/10 03:42:55;;;;;;;1.30;1.00;;;;;;;19.10;78.45;99737.04;1728575;80;21640;-54
2021/08/10 03:45:24;;;;;;;1.52;1.00;;;;;;;19.09;78.56;99736.66;1757617;80;21136;-56
2021/08/10 03:47:51;;;;;;;1.70;1.47;;;;;;;19.10;78.54;99728.86;1757215;80;21582;-55
2021/08/10 03:50:18;;;;;;;3.85;1.10;;;;;;;19.13;78.50;99736.80;1754829;80;21061;-56
2021/08/10 03:52:49;;;;;;;1.47;1.20;;;;;;;19.16;78.44;99733.79;1756246;80;21098;-56
2021/08/10 03:58:06;;;;;;;1.40;1.30;;;;;;;19.20;78.33;99719.78;1790826;78;28131;-58
2021/08/10 04:00:37;;;;;;;2.08;1.42;;;;;;;19.16;78.33;99727.84;1737733;79;21041;-56
2021/08/10 04:03:05;;;;;;;1.90;1.15;;;;;;;19.14;78.34;99727.62;1767294;79;21452;-57
2021/08/10 04:05:33;;;;;;;1.22;1.12;;;;;;;19.16;78.40;99722.88;1737164;79;20923;-57
2021/08/10 04:08:01;;;;;;;1.30;1.20;;;;;;;19.17;78.39;99718.66;1747489;79;20975;-58
2021/08/10 04:10:29;;;;;;;1.37;1.20;;;;;;;19.18;78.31;99723.12;1766876;79;20961;-57
2021/08/10 04:12:56;;;;;;;2.75;1.22;;;;;;;19.19;78.27;99716.67;1763207;79;21547;-57
2021/08/10 04:15:23;;;;;;;1.57;1.25;;;;;;;19.24;78.24;99717.64;1764636;79;21415;-58
2021/08/10 04:17:50;;;;;;;1.35;1.20;;;;;;;19.27;78.15;99715.53;1766672;79;21444;-59
2021/08/10 04:20:18;;;;;;;1.27;1.17;;;;;;;19.33;78.10;99719.59;1769136;78;21417;-54
2021/08/10 04:22:48;;;;;;;4.30;1.20;;;;;;;19.41;77.95;99720.30;1762560;79;21023;-55
2021/08/10 04:25:16;;;;;;;5.05;1.07;;;;;;;19.48;77.71;99721.04;1763444;79;20986;-56
2021/08/10 04:27:43;;;;;;;1.87;1.40;;;;;;;19.54;77.48;99723.27;1763240;79;21954;-58
2021/08/10 04:30:12;;;;;;;1.87;1.20;;;;;;;19.62;77.13;99722.61;1767442;79;20859;-57
2021/08/10 04:32:39;;;;;;;1.15;1.05;;;;;;;19.74;76.99;99728.86;1754649;79;20933;-57
2021/08/10 04:35:06;;;;;;;2.65;1.42;;;;;;;19.84;76.61;99714.77;1749734;81;20974;-56
2021/08/10 04:37:33;;;;;;;1.30;1.10;;;;;;;19.89;76.17;99716.63;1748029;80;20985;-54
2021/08/10 04:40:00;;;;;;;3.22;1.50;;;;;;;19.92;76.02;99721.80;1752552;80;21636;-53
2021/08/10 04:42:44;;;;;;;;;;;;;;;19.97;75.71;99723.66;1752165;80;20985;-52
2021/08/10 04:45:12;;;;;;;2.05;1.32;;;;;;;20.01;75.57;99723.73;1755047;80;20617;-56
2021/08/10 04:47:38;;;;;;;1.60;1.42;;;;;;;20.03;75.32;99728.07;1746720;80;20942;-53
2021/08/10 04:50:06;;;;;;;1.10;1.10;;;;;;;20.05;75.25;99727.94;1745352;80;21582;-54
2021/08/10 04:52:33;;;;;;;1.25;1.15;;;;;;;20.08;75.25;99724.05;1748468;80;21542;-55
2021/08/10 04:54:59;;;;;;;1.00;0.90;;;;;;;20.08;75.26;99711.25;1751568;80;20910;-54
2021/08/10 04:57:27;;;;;;;1.27;1.17;;;;;;;20.12;75.06;99711.87;1688493;81;20948;-53
2021/08/10 04:59:55;;;;;;;1.37;1.27;;;;;;;20.14;74.94;99713.47;1648853;83;21066;-54
2021/08/10 05:02:21;;;;;;;1.22;1.12;;;;;;;20.16;74.83;99710.08;1712652;81;21065;-54
2021/08/10 05:04:48;;;;;;;2.95;0.90;;;;;;;20.20;74.73;99712.92;1716991;81;22858;-55
2021/08/10 05:07:15;;;;;;;1.42;1.32;;;;;;;20.25;74.66;99707.03;1714148;81;21666;-54
2021/08/10 05:09:43;;;;;;;1.82;1.30;;;;;;;20.32;74.51;99705.52;1682426;82;21054;-54
2021/08/10 05:12:10;;;;;;;1.32;1.22;;;;;;;20.39;74.23;99706.72;1713498;81;21054;-54
2021/08/10 05:14:36;;;;;;;1.77;1.02;;;;;;;20.47;74.14;99703.30;1708086;82;21142;-55
2021/08/10 05:17:03;;;;;;;1.27;1.17;;;;;;;20.53;73.91;99700.88;1715039;81;21078;-55
2021/08/10 05:19:31;;;;;;;2.20;1.20;;;;;;;20.59;73.60;99697.57;1681338;82;21465;-53
2021/08/10 05:21:58;;;;;;;1.12;1.02;;;;;;;20.64;73.37;99699.41;1711627;82;21563;-55
2021/08/10 05:24:24;;;;;;;2.08;1.20;;;;;;;20.68;73.18;99694.50;1707927;82;20983;-55
2021/08/10 05:26:51;;;;;;;4.20;1.00;;;;;;;20.73;73.16;99697.70;1705004;82;21036;-57
2021/08/10 05:29:17;;;;;;;1.62;1.00;;;;;;;20.80;73.08;99698.00;1712587;82;21150;-55
2021/08/10 05:31:45;;;;;;;1.40;1.30;;;;;;;20.89;72.84;99693.92;1709495;82;21123;-55
2021/08/10 05:34:11;;;;;;;1.45;1.00;;;;;;;20.99;72.42;99698.05;1687168;82;21627;-54
2021/08/10 05:36:38;;;;;;;1.70;1.45;;;;;;;21.06;72.08;99697.34;1712745;82;21595;-57
2021/08/10 05:39:04;;;;;;;1.80;1.07;;;;;;;21.12;71.86;99695.91;1714300;82;21130;-53
2021/08/10 05:41:31;;;;;;;25.12;9.58;;;;;;;21.18;71.55;99691.78;1715454;82;21140;-54
2021/08/10 05:43:59;;;;;;;4.33;1.42;;;;;;;21.22;72.07;99692.71;1713719;82;21083;-55
2021/08/10 05:46:26;;;;;;;2.87;1.05;;;;;;;21.24;72.25;99692.58;1712944;82;21725;-56
2021/08/10 05:48:52;;;;;;;1.50;1.10;;;;;;;21.22;72.58;99691.34;1683202;82;22406;-57
2021/08/10 05:51:19;;;;;;;4.17;1.00;;;;;;;21.25;72.47;99694.30;1713897;82;21655;-56
2021/08/10 05:53:48;;;;;;;1.10;1.00;;;;;;;21.32;72.62;99694.09;1713974;82;21161;-56
2021/08/10 05:58:49;;;;;;;1.57;1.12;;;;;;;21.56;72.34;99688.17;1866560;75;28088;-56
2021/08/10 06:01:17;;;;;;;1.50;1.40;;;;;;;21.62;72.22;99686.21;1840339;75;21036;-55
2021/08/10 06:03:44;;;;;;;1.25;1.00;;;;;;;21.69;71.80;99688.75;1838310;77;21194;-56
2021/08/10 06:06:13;;;;;;;1.90;0.90;;;;;;;21.75;71.45;99693.14;1835078;76;20947;-54
2021/08/10 06:08:41;;;;;;;3.35;1.00;;;;;;;21.81;71.25;99697.16;1828408;77;21520;-55
2021/08/10 06:11:07;;;;;;;2.55;1.00;;;;;;;21.86;71.16;99691.58;1835846;76;20966;-56
2021/08/10 06:13:36;;;;;;;3.80;1.00;;;;;;;21.93;70.33;99694.63;1831872;77;21036;-57
2021/08/10 06:16:04;;;;;;;3.77;1.35;;;;;;;21.96;69.95;99695.67;1783900;78;21000;-57
2021/08/10 06:18:30;;;;;;;2.98;1.32;;;;;;;22.00;69.93;99693.55;1783849;78;21694;-56
2021/08/10 06:20:57;;;;;;;1.42;0.90;;;;;;;22.03;69.73;99700.12;1797241;78;20938;-57
2021/08/10 06:23:24;;;;;;;1.05;1.00;;;;;;;22.06;69.53;99687.47;1771237;79;21041;-55
2021/08/10 06:25:52;;;;;;;1.75;0.88;;;;;;;22.14;69.44;99687.59;1731187;79;21462;-57
2021/08/10 06:28:18;;;;;;;1.95;1.10;;;;;;;22.21;69.09;99688.20;1770333;79;21654;-58
2021/08/10 06:30:45;;;;;;;1.20;1.00;;;;;;;22.28;69.19;99684.39;1771630;78;21028;-55
2021/08/10 06:33:11;;;;;;;2.12;1.10;;;;;;;22.36;68.83;99683.63;1751013;79;21081;-57
2021/08/10 06:35:38;;;;;;;2.40;1.27;;;;;;;22.42;68.63;99680.28;1747131;79;21053;-59
2021/08/10 06:38:04;;;;;;;1.67;1.00;;;;;;;22.49;68.02;99682.77;1740780;79;21084;-54
2021/08/10 06:40:33;;;;;;;2.25;1.17;;;;;;;22.55;68.24;99684.90;1745545;79;21659;-55
2021/08/10 06:42:59;;;;;;;2.77;0.93;;;;;;;22.61;68.06;99685.18;1744039;79;21524;-56
2021/08/10 06:45:25;;;;;;;3.37;1.00;;;;;;;22.69;67.74;99680.30;1774247;78;21158;-57
2021/08/10 06:47:52;;;;;;;2.83;1.07;;;;;;;22.80;66.92;99683.34;1767952;79;21521;-58
2021/08/10 06:50:21;;;;;;;1.62;1.30;;;;;;;22.88;66.08;99686.22;1771936;78;20927;-56
2021/08/10 06:52:48;;;;;;;2.17;1.00;;;;;;;22.90;65.88;99679.54;1763034;79;21091;-58
2021/08/10 06:55:16;;;;;;;1.60;1.12;;;;;;;22.94;65.97;99682.85;1745805;80;21388;-58
2021/08/10 06:57:44;;;;;;;1.50;0.90;;;;;;;22.99;66.08;99682.73;1735830;79;21130;-57
2021/08/10 07:00:12;;;;;;;0.80;0.80;;;;;;;23.05;65.51;99681.78;1725759;80;21106;-56
2021/08/10 07:02:39;;;;;;;0.80;0.80;;;;;;;23.11;65.19;99684.76;1733910;80;20999;-56
2021/08/10 07:05:06;;;;;;;1.05;0.95;;;;;;;23.20;65.22;99687.95;1731573;80;21103;-57
2021/08/10 07:07:32;;;;;;;1.00;0.90;;;;;;;23.28;64.37;99686.66;1728271;80;21447;-59
2021/08/10 07:10:01;;;;;;;1.92;0.82;;;;;;;23.32;63.47;99672.95;1700219;80;21061;-57
2021/08/10 07:12:28;;;;;;;0.90;0.90;;;;;;;23.37;62.96;99676.61;1728332;80;21434;-58
2021/08/10 07:14:54;;;;;;;1.25;0.90;;;;;;;23.37;62.83;99671.98;1728826;80;21976;-56
2021/08/10 07:17:23;;;;;;;2.47;0.98;;;;;;;23.40;63.33;99673.02;1730248;80;21192;-58
2021/08/10 07:19:51;;;;;;;2.45;1.00;;;;;;;23.48;63.51;99670.86;1709837;82;20943;-56
2021/08/10 07:22:21;;;;;;;1.30;1.00;;;;;;;23.55;63.54;99670.64;1728293;80;20979;-59
2021/08/10 07:24:48;;;;;;;4.53;0.90;;;;;;;23.65;63.45;99669.14;1731997;80;20944;-57
2021/08/10 07:27:16;;;;;;;1.20;0.80;;;;;;;23.73;62.88;99670.62;1735175;80;21007;-56
2021/08/10 07:29:44;;;;;;;1.40;1.20;;;;;;;23.84;63.07;99676.34;1734790;80;22138;-55
2021/08/10 07:32:11;;;;;;;1.17;0.98;;;;;;;23.94;62.81;99674.36;1730136;80;20955;-55
2021/08/10 07:34:37;;;;;;;1.77;0.90;;;;;;;24.01;62.13;99665.30;1731684;80;21458;-54
2021/08/10 07:37:04;;;;;;;0.80;0.80;;;;;;;24.05;61.50;99663.11;1728628;80;21837;-55
2021/08/10 07:39:32;;;;;;;3.92;0.80;;;;;;;24.07;61.27;99667.40;1731571;80;21000;-54
2021/08/10 07:41:58;;;;;;;0.93;0.90;;;;;;;24.13;61.67;99669.52;1733025;80;21353;-54
2021/08/10 07:44:26;;;;;;;0.80;0.80;;;;;;;24.18;61.42;99675.03;1729895;80;20928;-53
2021/08/10 07:46:53;;;;;;;0.93;0.90;;;;;;;24.20;60.80;99679.86;1734500;80;20931;-55
2021/08/10 07:49:22;;;;;;;4.15;0.80;;;;;;;24.22;61.05;99680.09;1732482;80;21003;-54
2021/08/10 07:51:48;;;;;;;4.03;1.05;;;;;;;24.24;60.86;99684.06;1730756;80;20966;-56
2021/08/10 07:54:14;;;;;;;1.00;0.90;;;;;;;24.29;60.76;99683.05;1732345;80;21108;-56
2021/08/10 07:56:41;;;;;;;1.25;1.12;;;;;;;24.33;60.42;99684.47;1734611;80;20987;-59
2021/08/10 07:59:08;;;;;;;2.12;0.93;;;;;;;24.35;60.15;99681.87;1721641;79;20937;-59
2021/08/10 08:01:36;;;;;;;1.10;0.80;;;;;;;24.37;60.29;99676.22;1745007;79;20935;-59
2021/08/10 08:04:03;;;;;;;0.80;0.80;;;;;;;24.41;60.25;99680.38;1747283;79;20974;-57
2021/08/10 08:06:30;;;;;;;1.00;0.90;;;;;;;24.47;60.19;99673.70;1744392;79;21523;-57
2021/08/10 08:08:56;;;;;;;3.72;0.90;;;;;;;24.54;59.76;99671.14;1744755;79;21345;-59
2021/08/10 08:11:24;;;;;;;1.20;0.90;;;;;;;24.60;59.59;99673.23;1745989;79;21130;-58
2021/08/10 08:13:50;;;;;;;1.22;0.90;;;;;;;24.68;59.27;99671.89;1746133;79;21476;-56
2021/08/10 08:16:17;;;;;;;0.93;0.80;;;;;;;24.74;59.28;99670.38;1749502;79;21637;-58
2021/08/10 08:18:46;;;;;;;0.80;0.80;;;;;;;24.80;58.76;99661.45;1745181;79;21458;-56
2021/08/10 08:21:14;;;;;;;1.30;0.88;;;;;;;24.87;58.91;99657.86;1744223;79;20927;-56
2021/08/10 08:23:43;;;;;;;0.80;0.80;;;;;;;24.93;57.59;99667.36;1752632;80;21452;-56
2021/08/10 08:26:09;;;;;;;2.85;1.45;;;;;;;24.95;57.35;99662.55;1739534;80;21602;-57
2021/08/10 08:28:38;;;;;;;5.45;1.00;;;;;;;24.96;57.61;99660.66;1743828;79;20939;-57
2021/08/10 08:31:05;;;;;;;1.12;0.85;;;;;;;24.98;57.11;99656.72;1746439;79;21270;-57
2021/08/10 08:33:32;;;;;;;1.00;0.80;;;;;;;25.01;56.76;99659.66;1741309;80;21055;-54
2021/08/10 08:35:59;;;;;;;0.80;0.80;;;;;;;25.04;55.95;99663.44;1779877;78;21080;-55
2021/08/10 08:38:25;;;;;;;1.95;0.90;;;;;;;25.04;56.04;99657.93;1748291;79;21021;-56
2021/08/10 08:40:54;;;;;;;1.30;0.88;;;;;;;25.05;55.98;99662.41;1745997;79;21068;-54
2021/08/10 08:43:22;;;;;;;4.85;0.90;;;;;;;25.06;56.00;99656.73;1754604;79;21108;-57
2021/08/10 08:45:50;;;;;;;0.80;0.80;;;;;;;25.09;56.53;99651.42;1746487;79;21097;-55
2021/08/10 08:48:16;;;;;;;4.37;1.00;;;;;;;25.15;56.86;99647.98;1746883;79;21128;-57
2021/08/10 08:50:45;;;;;;;3.00;0.82;;;;;;;25.21;56.44;99650.91;1749983;79;21090;-55
2021/08/10 08:53:14;;;;;;;1.00;0.90;;;;;;;25.24;55.80;99652.48;1749859;79;21098;-57
2021/08/10 08:55:43;;;;;;;1.95;1.15;;;;;;;25.26;56.13;99644.91;1746083;79;21070;-56
2021/08/10 08:58:11;;;;;;;0.80;0.80;;;;;;;25.29;56.60;99645.06;1743012;79;21079;-57
2021/08/10 09:00:38;;;;;;;1.62;0.90;;;;;;;25.35;55.96;99650.74;1736201;80;21102;-56
2021/08/10 09:03:04;;;;;;;1.10;0.80;;;;;;;25.40;55.55;99648.36;1745175;80;21996;-56
2021/08/10 09:05:33;;;;;;;0.80;0.80;;;;;;;25.44;55.29;99652.99;1736852;80;21073;-56
2021/08/10 09:08:30;;;;;;;1.47;0.78;;;;;;;25.47;55.22;99656.28;1737211;80;23265;-55
2021/08/10 09:11:04;;;;;;;0.85;0.80;;;;;;;25.52;55.09;99655.23;1742800;80;21498;-57
2021/08/10 09:13:33;;;;;;;0.90;0.90;;;;;;;25.57;54.61;99642.34;1736477;80;21088;-56
2021/08/10 09:16:02;;;;;;;1.70;0.90;;;;;;;25.62;54.34;99639.94;1735029;80;21353;-59
2021/08/10 09:18:29;;;;;;;1.50;0.90;;;;;;;25.66;54.01;99645.98;1739588;80;20898;-56
2021/08/10 09:21:10;;;;;;;1.45;0.90;;;;;;;25.65;54.56;99645.63;1741578;80;21047;-54
2021/08/10 09:23:54;;;;;;;5.08;0.93;;;;;;;25.68;54.15;99652.19;1741914;80;21512;-55
2021/08/10 09:26:38;;;;;;;1.98;0.70;;;;;;;25.69;54.49;99640.97;1742434;80;21059;-56
2021/08/10 09:29:04;;;;;;;2.15;0.78;;;;;;;25.76;54.16;99639.78;1742834;80;21112;-60
2021/08/10 09:31:43;;;;;;;0.80;0.80;;;;;;;25.82;54.32;99637.70;1736168;80;21131;-58
2021/08/10 09:34:26;;;;;;;3.72;0.80;;;;;;;25.89;54.48;99631.31;1735120;80;22501;-56
2021/08/10 09:36:54;;;;;;;2.25;0.80;;;;;;;25.97;53.39;99631.81;1737465;80;21291;-53
2021/08/10 09:39:34;;;;;;;1.25;0.90;;;;;;;26.02;53.70;99638.20;1739820;80;21088;-54
2021/08/10 09:42:06;;;;;;;1.15;0.93;;;;;;;26.04;53.43;99636.09;1735269;80;21052;-57
2021/08/10 09:44:36;;;;;;;0.78;0.78;;;;;;;26.08;53.12;99630.59;1736983;80;21128;-55
2021/08/10 09:47:03;;;;;;;5.15;0.95;;;;;;;26.08;52.80;99632.83;1739488;80;21034;-53
2021/08/10 09:49:44;;;;;;;1.80;0.70;;;;;;;26.09;53.00;99630.94;1737261;80;20979;-56
2021/08/10 09:52:32;;;;;;;0.75;0.72;;;;;;;26.11;53.18;99626.98;1739154;80;21294;-56
2021/08/10 09:55:10;;;;;;;2.45;0.72;;;;;;;26.17;52.89;99613.84;1744787;80;21118;-55
2021/08/10 09:57:39;;;;;;;1.25;0.80;;;;;;;26.28;53.05;99619.02;1710504;81;21512;-54
2021/08/10 10:00:07;;;;;;;1.15;0.90;;;;;;;26.37;52.88;99613.79;1709669;80;23305;-57
2021/08/10 10:02:36;;;;;;;1.15;0.95;;;;;;;26.41;53.04;99617.06;1744140;80;21282;-53
2021/08/10 10:05:04;;;;;;;1.72;0.90;;;;;;;26.42;52.87;99614.66;1748090;80;21345;-56
2021/08/10 10:07:30;;;;;;;0.90;0.90;;;;;;;26.42;52.85;99609.65;1745805;80;20996;-55
2021/08/10 10:10:04;;;;;;;3.47;1.62;;;;;;;26.42;52.80;99604.99;1742929;80;21044;-54
2021/08/10 10:12:33;;;;;;;1.27;0.90;;;;;;;26.44;52.58;99607.58;1716983;80;21022;-56
2021/08/10 10:15:00;;;;;;;1.05;0.90;;;;;;;26.48;52.37;99605.65;1750925;80;21115;-55
2021/08/10 10:17:31;;;;;;;1.00;0.90;;;;;;;26.53;52.26;99602.37;1746609;79;20949;-57
2021/08/10 10:19:58;;;;;;;3.90;1.07;;;;;;;26.56;52.28;99600.09;1737721;79;20965;-56
2021/08/10 10:22:25;;;;;;;1.10;1.00;;;;;;;26.58;52.23;99599.91;1743115;80;20993;-57
2021/08/10 10:24:55;;;;;;;1.00;1.00;;;;;;;26.58;51.76;99602.67;1743774;79;21088;-54
2021/08/10 10:27:22;;;;;;;1.02;0.80;;;;;;;26.55;51.24;99590.08;1747835;80;21647;-54
2021/08/10 10:29:51;;;;;;;1.37;0.75;;;;;;;26.56;51.39;99592.33;1743320;80;21160;-56
2021/08/10 10:32:18;;;;;;;2.02;0.90;;;;;;;26.63;52.17;99589.18;1745031;80;21340;-57
2021/08/10 10:34:45;;;;;;;1.65;1.00;;;;;;;26.71;51.95;99587.23;1751420;79;21003;-54
2021/08/10 10:37:11;;;;;;;2.08;0.90;;;;;;;26.79;52.53;99590.50;1744096;80;22260;-57
2021/08/10 10:39:40;;;;;;;1.00;0.90;;;;;;;26.82;51.71;99576.30;1750611;80;21725;-55
2021/08/10 10:42:10;;;;;;;2.17;0.80;;;;;;;26.87;51.00;99586.30;1752448;80;20984;-55
2021/08/10 10:44:44;;;;;;;3.27;0.85;;;;;;;26.84;51.21;99590.80;1753297;80;20953;-55
2021/08/10 10:47:31;;;;;;;2.12;0.88;;;;;;;26.83;51.16;99586.31;1743737;80;21450;-54
2021/08/10 10:50:05;;;;;;;0.95;0.95;;;;;;;26.85;51.29;99584.76;1747194;80;21585;-54
2021/08/10 10:52:32;;;;;;;;;;;;;;;26.83;51.84;99578.03;1749196;80;21072;-55
2021/08/10 10:54:59;;;;;;;0.93;0.93;;;;;;;26.82;51.67;99585.11;1777757;78;20116;-54
2021/08/10 10:57:35;;;;;;;0.93;0.80;;;;;;;26.78;51.41;99587.91;1771071;78;21002;-52
2021/08/10 11:00:12;;;;;;;1.00;0.80;;;;;;;26.77;50.97;99592.58;1749709;79;20941;-56
2021/08/10 11:02:39;;;;;;;0.88;0.80;;;;;;;26.79;50.51;99590.50;1737439;80;21106;-57
2021/08/10 11:05:17;;;;;;;0.80;0.80;;;;;;;26.84;50.69;99584.41;1733612;80;20964;-57
2021/08/10 11:07:47;;;;;;;0.88;0.80;;;;;;;26.88;50.20;99582.47;1736487;81;21424;-58
2021/08/10 11:10:46;;;;;;;1.55;0.80;;;;;;;26.94;50.03;99567.13;1737164;80;21514;-53
2021/08/10 11:13:25;;;;;;;1.05;0.80;;;;;;;26.96;49.74;99569.20;1732768;80;21519;-58
2021/08/10 11:15:54;;;;;;;2.45;0.80;;;;;;;26.96;50.34;99576.10;1733359;80;21113;-56
2021/08/10 11:18:23;;;;;;;3.75;0.80;;;;;;;26.92;50.24;99573.34;1735761;81;21056;-54
2021/08/10 11:20:52;;;;;;;0.90;0.80;;;;;;;26.90;50.06;99572.11;1739611;80;21088;-54
2021/08/10 11:23:25;;;;;;;0.82;0.78;;;;;;;26.91;50.03;99564.72;1735254;80;21057;-55
2021/08/10 11:26:07;;;;;;;1.63;0.80;;;;;;;26.94;50.03;99562.98;1710345;82;21937;-55
2021/08/10 11:28:35;;;;;;;1.20;0.80;;;;;;;27.03;49.58;99564.13;1707688;81;21638;-55
2021/08/10 11:31:10;;;;;;;1.00;0.80;;;;;;;27.07;49.32;99564.08;1706196;82;21167;-57
2021/08/10 11:33:41;;;;;;;1.70;0.90;;;;;;;27.06;49.32;99565.13;1736871;80;21475;-58
2021/08/10 11:36:16;;;;;;;0.80;0.80;;;;;;;26.99;49.32;99564.66;1739787;80;21061;-55
2021/08/10 11:38:52;;;;;;;1.37;0.80;;;;;;;26.93;49.37;99564.89;1740244;80;21073;-54
2021/08/10 11:41:29;;;;;;;1.00;1.00;;;;;;;26.91;49.29;99554.53;1742956;80;22342;-56
2021/08/10 11:44:02;;;;;;;2.40;0.70;;;;;;;26.91;49.02;99543.48;1712748;80;21061;-54
2021/08/10 11:46:38;;;;;;;1.52;0.72;;;;;;;26.98;49.66;99544.98;1744283;80;21073;-55
2021/08/10 11:49:09;;;;;;;0.95;0.68;;;;;;;27.10;50.01;99535.23;1734995;80;21092;-57